Latest Weather Observations for Norseman Airport

IDW60801

Issued at 3:03 pm WST Thursday 18 July 2024 (issued every 10 minutes, with the page automatically refreshed every 10 minutes)

About weather observations | Map of weather stations | Latest weather observations for WA | Other Formats
Station Details ID: 012009 Name: NORSEMAN AERO Lat: -32.21 Lon: 121.75 Height: 262.5 m
Data from the previous 72 hours. | See also: Recent months at Norseman Airport
Date/Time
WST
Temp
°C
App
Temp
°C
Dew
Point
°C
Rel
Hum
%
Delta-T
°C
Wind Press
QNH
hPa
Press
MSL
hPa
Rain since
9am
mm
Dir  Spd
km/h
Gust
km/h
Spd
kts
Gust
kts
18/02:30pm 12.9 10.0 11.1 89 1.0 WSW 17 22 9 12 1009.1 1009.2 1.2
18/02:00pm 13.4 11.5 11.8 90 0.9 SW 13 17 7 9 1008.5 1008.6 0.6
18/01:30pm 13.7 11.2 11.0 84 1.4 WSW 15 20 8 11 1009.1 1009.2 0.4
18/01:00pm 14.4 11.0 10.6 78 2.0 WSW 19 24 10 13 1008.9 1009.0 0.0
18/12:30pm 14.2 10.9 11.7 85 1.4 WSW 20 24 11 13 1009.3 1009.4 0.0
18/12:00pm 14.7 8.8 10.5 76 2.2 WSW 32 39 17 21 1009.6 1009.7 0.0
18/11:30am 16.7 11.5 10.3 66 3.4 WSW 28 35 15 19 1009.4 1009.5 0.0
18/11:00am 17.6 10.8 6.8 49 5.5 WNW 32 41 17 22 1009.7 1009.8 0.0
18/10:30am 17.2 8.9 7.8 54 4.8 WNW 41 54 22 29 1010.1 1010.3 0.0
18/10:22am 17.1 11.4 6.6 50 5.3 WNW 26 48 14 26 1010.2 1010.4 0.0
18/10:00am 15.7 11.4 5.3 50 5.0 N 17 20 9 11 1011.0 1011.2 0.0
18/09:30am 15.4 11.8 4.8 49 5.0 N 13 17 7 9 1010.9 1011.1 0.0
18/09:00am 15.2 10.7 4.3 48 5.1 N 17 20 9 11 1010.9 1011.1 0.0
18/08:30am 15.5 10.2 3.0 43 5.7 N 20 26 11 14 1010.7 1010.9 0.0
18/08:00am 14.3 9.4 4.0 50 4.8 N 19 24 10 13 1010.8 1011.0 0.0
18/07:30am 14.0 9.0 3.8 50 4.7 N 19 26 10 14 1010.1 1010.3 0.0
18/07:00am 14.0 8.0 3.5 49 4.8 N 24 28 13 15 1010.0 1010.1 0.0
18/06:30am 14.1 7.3 3.3 48 4.9 N 28 37 15 20 1010.1 1010.3 0.0
18/06:00am 14.0 7.6 3.2 48 4.9 NNE 26 30 14 16 1010.1 1010.3 0.0
18/05:30am 13.6 7.3 3.9 52 4.5 N 26 32 14 17 1010.6 1010.8 0.0
18/05:00am 13.3 6.3 4.2 54 4.2 N 30 35 16 19 1010.4 1010.6 0.0
18/04:30am 14.1 6.4 2.4 45 5.2 N 32 37 17 20 1010.6 1010.8 0.0
18/04:00am 14.3 6.4 2.2 44 5.4 N 33 41 18 22 1010.2 1010.4 0.0
18/03:30am 14.1 6.8 2.4 45 5.2 N 30 35 16 19 1010.9 1011.1 0.0
18/03:00am 14.1 6.8 2.7 46 5.1 N 30 33 16 18 1011.9 1012.0 0.0
18/02:30am 14.1 6.5 3.0 47 5.0 N 32 37 17 20 1011.9 1012.0 0.0
18/02:00am 13.9 7.1 3.1 48 4.9 N 28 32 15 17 1012.3 1012.4 0.0
18/01:30am 13.9 6.8 3.4 49 4.8 N 30 35 16 19 1012.5 1012.6 0.0
18/01:00am 13.8 7.2 4.1 52 4.5 N 28 33 15 18 1013.2 1013.3 0.0
18/12:30am 13.4 6.9 4.6 55 4.1 NNE 28 33 15 18 1013.6 1013.8 0.0
18/12:00am 12.6 7.3 4.8 59 3.6 N 22 26 12 14 1014.5 1014.7 0.0
 
Date/Time
WST
Temp
°C
App
Temp
°C
Dew
Point
°C
Rel
Hum
%
Delta-T
°C
Wind Press
QNH
hPa
Press
MSL
hPa
Rain since
9am
mm
Dir  Spd
km/h
Gust
km/h
Spd
kts
Gust
kts
17/11:30pm 12.7 7.0 4.7 58 3.7 N 24 26 13 14 1015.4 1015.5 0.0
17/11:00pm 13.3 6.8 4.5 55 4.1 N 28 32 15 17 1015.8 1015.9 0.0
17/10:30pm 13.2 7.6 5.4 59 3.7 N 24 28 13 15 1016.4 1016.5 0.0
17/10:00pm 12.6 8.0 5.5 62 3.4 NNE 19 20 10 11 1016.9 1017.1 0.0
17/09:30pm 12.5 8.6 5.4 62 3.3 N 15 17 8 9 1017.5 1017.7 0.0
17/09:00pm 13.2 8.9 5.1 58 3.8 N 17 20 9 11 1018.0 1018.2 0.0
17/08:30pm 13.6 9.4 5.5 58 3.9 N 17 20 9 11 1017.9 1018.1 0.0
17/08:00pm 13.8 9.5 5.2 56 4.1 N 17 20 9 11 1017.6 1017.8 0.0
17/07:30pm 14.3 10.0 5.1 54 4.4 N 17 20 9 11 1017.7 1017.9 0.0
17/07:00pm 14.3 10.0 5.1 54 4.4 N 17 19 9 10 1017.7 1017.9 0.0
17/06:30pm 15.6 9.8 4.6 48 5.2 NNE 24 30 13 16 1017.8 1018.0 0.0
17/06:00pm 16.3 10.6 4.7 46 5.5 NNE 24 28 13 15 1017.8 1018.0 0.0
17/05:30pm 16.5 11.6 4.9 46 5.6 NNE 20 26 11 14 1017.5 1017.7 0.0
17/05:00pm 17.0 11.3 4.7 44 5.9 N 24 30 13 16 1017.7 1017.9 0.0
17/04:30pm 18.2 12.1 4.7 41 6.5 N 26 35 14 19 1017.7 1017.9 0.0
17/04:00pm 18.1 11.3 5.0 42 6.4 N 30 35 16 19 1017.8 1018.0 0.0
17/03:30pm 18.0 10.8 4.9 42 6.4 N 32 37 17 20 1017.6 1017.8 0.0
17/03:00pm 18.3 10.6 5.2 42 6.4 N 35 44 19 24 1017.4 1017.6 0.0
17/02:30pm 18.3 10.5 4.8 41 6.6 N 35 46 19 25 1017.4 1017.6 0.0
17/02:00pm 18.1 9.5 4.7 41 6.5 N 39 44 21 24 1017.8 1018.0 0.0
17/01:30pm 16.8 9.0 4.8 45 5.8 N 35 46 19 25 1018.1 1018.3 0.0
17/01:00pm 16.5 8.3 4.9 46 5.6 N 37 46 20 25 1019.4 1019.5 0.0
17/12:30pm 16.4 9.2 5.7 49 5.2 N 33 41 18 22 1019.8 1020.0 0.0
17/12:00pm 15.3 7.6 5.2 51 4.8 N 35 43 19 23 1021.1 1021.3 0.0
17/11:30am 15.2 7.1 5.4 52 4.7 N 37 44 20 24 1021.7 1021.9 0.0
17/11:00am 14.4 7.7 5.7 56 4.2 N 30 39 16 21 1022.5 1022.7 0.0
17/10:30am 13.6 7.4 6.0 60 3.7 N 28 35 15 19 1023.7 1023.9 0.0
17/10:00am 13.0 6.1 6.4 64 3.2 N 32 39 17 21 1024.1 1024.3 0.0
17/09:30am 11.6 4.5 5.5 66 2.9 N 32 37 17 20 1024.6 1024.8 0.0
17/09:00am 9.9 4.2 5.1 72 2.2 N 24 32 13 17 1024.6 1024.8 0.0
17/08:30am 9.1 3.7 4.7 74 2.0 N 22 28 12 15 1024.7 1024.9 0.0
17/08:00am 7.7 2.8 4.1 78 1.6 N 19 20 10 11 1024.2 1024.4 0.0
17/07:30am 5.1 0.7 2.5 83 1.1 NNE 15 17 8 9 1024.0 1024.2 0.0
17/07:00am 3.3 -0.6 1.2 86 0.8 N 11 13 6 7 1024.3 1024.5 0.0
17/06:30am 2.7 -1.3 0.8 87 0.7 N 11 13 6 7 1024.2 1024.4 0.0
17/06:00am 3.6 0.7 2.4 92 0.5 NNE 7 11 4 6 1024.1 1024.3 0.0
17/05:30am 3.8 1.6 0.8 81 1.2 NE 2 7 1 4 1024.2 1024.4 0.0
17/05:00am 5.6 2.8 3.3 85 1.0 NE 7 9 4 5 1024.2 1024.4 0.0
17/04:30am 5.0 1.8 2.9 86 0.9 NE 9 11 5 6 1024.1 1024.3 0.0
17/04:00am 3.8 0.9 1.7 86 0.8 NE 6 7 3 4 1024.5 1024.7 0.0
17/03:30am 5.9 2.3 3.1 82 1.2 NE 11 15 6 8 1024.6 1024.8 0.0
17/03:00am 5.1 1.8 2.3 82 1.1 NNE 9 11 5 6 1024.7 1024.9 0.0
17/02:30am 5.6 2.4 2.8 82 1.2 NNE 9 11 5 6 1024.7 1024.9 0.0
17/02:00am 5.6 1.9 2.4 80 1.3 N 11 13 6 7 1024.7 1024.9 0.0
17/01:30am 5.4 1.3 2.4 81 1.2 NNE 13 15 7 8 1024.7 1024.9 0.0
17/01:00am 6.0 2.0 2.8 80 1.3 NNE 13 15 7 8 1024.9 1025.1 0.0
17/12:30am 6.5 3.3 2.9 78 1.5 NNE 9 11 5 6 1025.2 1025.4 0.0
17/12:00am 7.1 4.1 4.1 81 1.3 N 9 11 5 6 1025.4 1025.6 0.0
 
Date/Time
WST
Temp
°C
App
Temp
°C
Dew
Point
°C
Rel
Hum
%
Delta-T
°C
Wind Press
QNH
hPa
Press
MSL
hPa
Rain since
9am
mm
Dir  Spd
km/h
Gust
km/h
Spd
kts
Gust
kts
16/11:30pm 6.9 3.8 3.5 79 1.5 N 9 11 5 6 1025.6 1025.8 0.0
16/11:00pm 6.3 3.5 3.1 80 1.3 N 7 9 4 5 1025.9 1026.1 0.0
16/10:30pm 6.2 3.5 2.7 78 1.5 N 6 9 3 5 1026.2 1026.5 0.0
16/10:00pm 8.6 5.7 4.6 76 1.8 N 9 11 5 6 1026.4 1026.7 0.0
16/09:30pm 7.2 5.6 4.3 82 1.3 NNW 2 7 1 4 1026.5 1026.8 0.0
16/09:00pm 6.3 4.9 3.5 82 1.2 CALM 0 0 0 0 1026.6 1026.9 0.0
16/08:30pm 6.5 5.1 3.5 81 1.3 CALM 0 0 0 0 1026.6 1026.9 0.0
16/08:00pm 7.3 4.9 4.1 80 1.4 NE 6 7 3 4 1026.6 1026.9 0.0
16/07:30pm 8.0 5.4 4.4 78 1.6 NE 7 7 4 4 1026.5 1026.8 0.0
16/07:00pm 8.8 7.6 4.6 75 1.9 CALM 0 0 0 0 1026.5 1026.8 0.0
16/06:30pm 11.0 8.9 6.0 71 2.4 NE 6 9 3 5 1026.2 1026.5 0.0
16/06:00pm 12.8 10.5 5.9 63 3.3 NE 7 9 4 5 1025.7 1025.9 0.0
16/05:30pm 14.1 11.2 6.5 60 3.7 NNE 11 13 6 7 1025.4 1025.6 0.0
16/05:00pm 16.1 12.1 6.8 54 4.6 N 17 20 9 11 1025.5 1025.7 0.0
16/04:30pm 17.1 13.1 6.6 50 5.3 N 17 20 9 11 1025.5 1025.7 0.0
16/04:00pm 17.7 14.6 7.2 50 5.3 N 13 19 7 10 1025.5 1025.7 0.0
16/03:30pm 17.8 13.5 7.2 50 5.4 NNW 19 24 10 13 1025.1 1025.3 0.0
16/03:00pm 17.7 14.5 6.9 49 5.4 NNW 13 20 7 11 1025.2 1025.4 0.0
16/02:30pm 17.7 13.9 7.4 51 5.3 N 17 24 9 13 1025.1 1025.3 0.0
16/02:00pm 17.5 13.6 7.3 51 5.2 N 17 28 9 15 1025.2 1025.4 0.0
16/01:30pm 17.4 14.4 7.5 52 5.0 N 13 22 7 12 1025.6 1025.8 0.0
16/01:00pm 16.6 12.9 8.1 57 4.3 NNW 17 20 9 11 1026.1 1026.3 0.0
16/12:30pm 15.8 12.9 8.3 61 3.8 N 13 19 7 10 1026.9 1027.2 0.0
16/12:00pm 15.5 12.0 8.7 64 3.5 N 17 22 9 12 1027.7 1027.9 0.0
16/11:30am 14.5 11.5 9.1 70 2.8 N 15 19 8 10 1028.4 1028.6 0.0
16/11:00am 13.5 10.1 9.0 74 2.3 N 17 22 9 12 1029.1 1029.3 0.0
16/10:30am 12.1 9.0 8.8 80 1.7 N 15 17 8 9 1029.4 1029.7 0.0
16/10:00am 10.5 7.9 7.9 84 1.3 N 11 15 6 8 1029.6 1029.9 0.0
16/09:30am 9.5 6.5 7.6 88 0.9 N 13 17 7 9 1029.7 1030.0 0.0
16/09:00am 9.3 5.9 7.6 89 0.8 N 15 19 8 10 1029.5 1029.8 0.0
16/08:30am 8.7 6.2 6.7 87 0.9 NNE 9 13 5 7 1029.1 1029.3 0.0
16/08:00am 7.1 4.8 5.9 92 0.5 E 7 9 4 5 1028.7 1028.9 0.0
16/07:30am 3.7 2.2 2.8 94 0.4 CALM 0 0 0 0 1027.9 1028.1 0.0
16/07:00am 2.4 0.7 1.8 96 0.2 CALM 0 0 0 0 1027.7 1027.9 0.0
16/06:30am 2.2 0.4 1.5 95 0.3 CALM 0 0 0 0 1027.5 1027.7 0.0
16/06:00am 2.3 0.6 1.6 95 0.3 CALM 0 0 0 0 1027.5 1027.7 0.0
16/05:30am 2.8 1.1 1.9 94 0.4 CALM 0 0 0 0 1027.6 1027.8 0.0
16/05:00am 3.2 1.6 2.3 94 0.4 CALM 0 0 0 0 1027.4 1027.6 0.0
16/04:30am 3.7 1.1 3.0 95 0.3 E 6 6 3 3 1027.3 1027.5 0.0
16/04:00am 4.2 1.4 3.2 93 0.4 E 7 9 4 5 1027.3 1027.5 0.0
16/03:30am 5.1 2.6 3.9 92 0.5 E 6 7 3 4 1027.3 1027.5 0.0
16/03:00am 6.3 4.1 5.1 92 0.5 E 6 7 3 4 1027.3 1027.5 0.0
16/02:30am 6.7 4.5 5.2 90 0.7 E 6 7 3 4 1027.4 1027.6 0.0
16/02:00am 7.0 4.5 4.7 85 1.0 E 7 11 4 6 1027.3 1027.5 0.0
16/01:30am 7.4 6.3 4.9 84 1.1 CALM 0 0 0 0 1027.4 1027.6 0.0
16/01:00am 8.9 7.7 6.3 84 1.2 NNE 2 7 1 4 1027.2 1027.4 0.0
16/12:30am 8.7 6.6 6.0 83 1.3 NNE 6 7 3 4 1027.3 1027.5 0.0
16/12:00am 9.7 7.1 6.2 79 1.6 E 9 13 5 7 1027.2 1027.4 0.0
 
Date/Time
WST
Temp
°C
App
Temp
°C
Dew
Point
°C
Rel
Hum
%
Delta-T
°C
Wind Press
QNH
hPa
Press
MSL
hPa
Rain since
9am
mm
Dir  Spd
km/h
Gust
km/h
Spd
kts
Gust
kts
15/11:30pm 10.2 7.3 6.4 77 1.8 E 11 17 6 9 1026.8 1027.1 0.0
15/11:00pm 10.8 6.7 6.4 74 2.1 E 17 24 9 13 1026.7 1027.0 0.0
15/10:30pm 11.5 7.4 6.4 71 2.4 ESE 17 24 9 13 1026.6 1026.9 0.0
15/10:00pm 12.0 8.7 6.3 68 2.7 ESE 13 19 7 10 1026.6 1026.9 0.0
15/09:30pm 10.2 9.0 6.4 77 1.8 ESE 2 11 1 6 1026.7 1027.0 0.0
15/09:00pm 10.2 8.1 5.6 73 2.1 SE 6 9 3 5 1026.7 1027.0 0.0
15/08:30pm 10.6 8.5 5.8 72 2.2 SSW 6 7 3 4 1026.7 1027.0 0.0
15/08:00pm 10.8 8.5 5.6 70 2.4 SE 7 9 4 5 1026.4 1026.7 0.0
15/07:30pm 10.7 8.2 5.0 68 2.6 SE 7 9 4 5 1025.7 1025.9 0.0
15/07:00pm 10.8 8.0 5.1 68 2.6 SE 9 11 5 6 1025.4 1025.6 0.0
15/06:30pm 10.9 8.1 5.0 67 2.7 SSE 9 11 5 6 1025.1 1025.3 0.0
15/06:00pm 12.0 9.6 5.2 63 3.2 SSE 7 9 4 5 1024.7 1024.9 0.0
15/05:30pm 13.7 11.0 5.6 58 3.9 SE 9 9 5 5 1024.4 1024.6 0.0
15/05:00pm 16.2 14.0 5.5 49 5.2 SE 6 7 3 4 1024.3 1024.5 0.0
15/04:30pm 17.4 13.9 5.4 45 5.9 E 13 15 7 8 1024.1 1024.3 0.0
15/04:00pm 17.9 14.1 5.8 45 6.0 SE 15 20 8 11 1024.0 1024.2 0.0
15/03:30pm 17.6 14.5 5.5 45 5.9 S 11 15 6 8 1023.7 1023.9 0.0

Other formats

Comma delimited format used in spreadsheet applications
http://www.bom.gov.au/fwo/IDW60801/IDW60801.95642.axf

JavaScript Object Notation format (JSON) in row-major order
http://www.bom.gov.au/fwo/IDW60801/IDW60801.95642.json

Data quality

Most of these data are generated automatically and are frequently updated. Quality checks on data are not normally performed. It is possible for incorrect values to appear. Refer to information at About Latest Weather Observations and please check the disclaimer before using these data.